Lincolnville, KS (66858)

8:32 AM CST on February 13, 2016 (GMT -0600)
Marion | | Change Station
CLOSE
Current Station
Personal Weather Station
Location: Marion, KS
Elevation: 1371 ft
Nearby Weather Stations

Elev 1371 ft 38.35 °N, 97.01 °W | Updated 12 minutes ago

Partly Cloudy
Partly Cloudy
20.1 °F
Feels Like 15 °F
N
3.7
Wind Variable Wind from West

Today
High -- | Low -- °F
--% Chance of Precip.
Yesterday
High -- | Low -- °F
Precip. -- in
Pressure 30.49 in
Visibility 10.0 miles
Clouds Clear
Windchill 15 °F
Dew Point 7 °F
Humidity 57%
Rainfall 0.00 in
Snow Depth Not available.
7:21 AM 6:03 PM
Waxing Crescent, 31% visible
METAR KEWK 131415Z AUTO 11010KT 10SM CLR M07/M16 A3049 RMK AO1
Pressure 30.49 in
Visibility 10.0 miles
Clouds Clear
Windchill 15 °F
Dew Point 7 °F
Humidity 57%
Rainfall 0.00 in
Snow Depth Not available.
7:21 AM 6:03 PM
Waxing Crescent, 31% visible
METAR KEWK 131415Z AUTO 11010KT 10SM CLR M07/M16 A3049 RMK AO1

10-Day Weather Forecast

Almanac

Astronomy

Feb. 13, 2016 Rise Set
Actual Time
Civil Twilight
Nautical Twilight
Astronomical Twilight
Moon
Length of Visible Light
Length of Day
Tomorrow will be .
, % of the Moon is Illuminated

Today's Extremes

State Highs State Lows

Community

WunderPhotos

Upload Photos

1,892,558 photos uploaded!

WunderBlog® & News

Nearby

Air Quality

  Air Quality AQ Index Pollutant
Not available.

Snow Depth

Station Depth Elevation

Earthquake Activity

City Distance Mag. Time & Date
Minimum magnitude displayed is 2.5.

Coastal Water Temperatures

Place Temperature

Stations

Nearby Weather Stations

Station Location Temp. Windchill Dew Point Humidity Wind Precip. Elev Updated Type
                   

Watches & Warnings

There are currently no watches in effect.